Pays
Station

 

Conditions  météo  pour  Shemya, Eareckson As  -  Etats-Unis    Etats-Unis

  
4 °C
    
 
 

METAR pour Shemya, Eareckson As :

PASY 142328Z AUTO 07009KT 7SM SCT023 BKN032 04/M01 A3012 RMK AO2 SLP204 $

 

Voici le bulletin pour Shemya, Eareckson As - Etats-Unis.
 
Le bulletin a été fait il y a 19 minutes, à 23:28 UTC .
Le vent soufflait à la vitesse de 4.6 mètres par seconde de Est/Nord-est (070°).
 
La température était de 4 °C, avec un point de rosée à -1 °C.
La température ressentie était de -0 °C.
 
La pression atmosphérique était de 1020 hPa.
L'humidité relative était de 69.8%.
 
Il y avait 3 à 4/8ème de nébulosité à une hauteur de 701 mètres et 5 à 7/8ème de nébulosité à une hauteur de 975 mètres.
 
La visibilité globale était de 11.3 kilomètres.
 

 
 
 

Pays :   A   B   C   D   E   F   G   H   I   J   K   L   M   N   O   P   Q   R   S   T   U   V   W   Y   Z

 

Partenaires :  Info Météo avec Met'info
Météo Marine avec MeteoMarine.net
Infos Site  |  Infos Légales  |  Crédits  |  Confidentialité
Contactez-nous  |  Ajouter aux favoris
© 2013-2018 METAR - Tous droits réservés